createdAt,value
2023-06-24T00:01:37.657Z,4.84
2023-06-24T00:03:35.181Z,4.84
2023-06-24T00:05:34.129Z,4.84
2023-06-24T00:07:34.068Z,4.84
2023-06-24T00:09:34.295Z,4.84
2023-06-24T00:11:34.654Z,4.84
2023-06-24T00:13:33.465Z,4.84
2023-06-24T00:15:34.276Z,4.84
2023-06-24T00:17:33.848Z,4.84
2023-06-24T00:19:33.601Z,4.84
2023-06-24T00:21:34.722Z,4.84
2023-06-24T00:23:36.683Z,4.84
2023-06-24T00:25:33.417Z,4.84
2023-06-24T00:27:34.295Z,4.84
2023-06-24T00:29:33.535Z,4.84
2023-06-24T00:31:34.741Z,4.84
2023-06-24T00:33:34.463Z,4.84
2023-06-24T00:35:33.597Z,4.84
2023-06-24T00:37:34.014Z,4.84
2023-06-24T00:39:33.675Z,4.84
2023-06-24T00:41:33.556Z,4.84
2023-06-24T00:43:33.901Z,4.84
2023-06-24T00:45:33.891Z,4.84
2023-06-24T00:47:35.890Z,4.84
2023-06-24T00:49:33.904Z,4.84
2023-06-24T00:51:34.440Z,4.84
2023-06-24T00:53:33.943Z,4.84
2023-06-24T00:55:33.852Z,4.84
2023-06-24T00:57:33.996Z,4.84
2023-06-24T00:59:36.482Z,4.84
2023-06-24T01:01:37.312Z,4.84
2023-06-24T01:03:34.267Z,4.84
2023-06-24T01:05:34.465Z,4.84
2023-06-24T01:07:34.277Z,4.84
2023-06-24T01:09:33.650Z,4.84
2023-06-24T01:11:34.242Z,4.84
2023-06-24T01:13:33.537Z,4.84
2023-06-24T01:15:33.815Z,4.84
2023-06-24T01:17:33.969Z,4.84
2023-06-24T01:19:33.630Z,4.84
2023-06-24T01:21:34.013Z,4.84
2023-06-24T01:23:33.364Z,4.84
2023-06-24T01:25:34.473Z,4.84
2023-06-24T01:27:33.407Z,4.84
2023-06-24T01:29:34.025Z,4.84
2023-06-24T01:31:33.802Z,4.84
2023-06-24T01:33:34.969Z,4.84
2023-06-24T01:35:34.136Z,4.84
2023-06-24T01:37:33.549Z,4.84
2023-06-24T01:39:34.057Z,4.84
2023-06-24T01:41:33.772Z,4.84
2023-06-24T01:43:33.372Z,4.84
2023-06-24T01:45:34.520Z,4.84
2023-06-24T01:47:34.213Z,4.84
2023-06-24T01:49:34.256Z,4.84
2023-06-24T01:51:33.973Z,4.84
2023-06-24T01:53:33.503Z,4.84
2023-06-24T01:55:34.486Z,4.84
2023-06-24T01:57:33.592Z,4.84
2023-06-24T01:59:34.110Z,4.84
2023-06-24T02:01:37.638Z,4.84
2023-06-24T02:03:34.596Z,4.84
2023-06-24T02:05:34.530Z,4.84
2023-06-24T02:07:33.949Z,4.84
2023-06-24T02:09:34.007Z,4.84
2023-06-24T02:11:33.906Z,4.84
2023-06-24T02:13:33.763Z,4.84
2023-06-24T02:15:34.649Z,4.84
2023-06-24T02:17:33.853Z,4.84
2023-06-24T02:19:33.328Z,4.84
2023-06-24T02:21:34.154Z,4.84
2023-06-24T02:23:33.764Z,4.84
2023-06-24T02:25:34.467Z,4.84
2023-06-24T02:27:33.789Z,4.84
2023-06-24T02:29:33.521Z,4.84
2023-06-24T02:31:34.994Z,4.84
2023-06-24T02:33:34.080Z,4.84
2023-06-24T02:35:33.690Z,4.84
2023-06-24T02:37:33.759Z,4.84
2023-06-24T02:39:36.321Z,4.84
2023-06-24T02:41:34.299Z,4.84
2023-06-24T02:43:33.658Z,4.84
2023-06-24T02:45:33.765Z,4.84
2023-06-24T02:47:37.543Z,4.84
2023-06-24T02:49:34.031Z,4.84
2023-06-24T02:51:33.570Z,4.84
2023-06-24T02:53:34.075Z,4.84
2023-06-24T02:55:34.159Z,4.84
2023-06-24T02:57:37.628Z,4.84
2023-06-24T02:59:33.975Z,4.84
2023-06-24T03:01:37.591Z,4.84
2023-06-24T03:03:35.048Z,4.84
2023-06-24T03:05:34.228Z,4.84
2023-06-24T03:07:33.719Z,4.84
2023-06-24T03:09:34.869Z,4.84
2023-06-24T03:11:34.287Z,4.84
2023-06-24T03:13:33.469Z,4.84
2023-06-24T03:15:36.135Z,4.84
2023-06-24T03:17:34.020Z,4.84
2023-06-24T03:19:33.618Z,4.84
2023-06-24T03:21:34.105Z,4.84
2023-06-24T03:23:33.741Z,4.84
2023-06-24T03:25:33.607Z,4.84
2023-06-24T03:27:33.964Z,4.84
2023-06-24T03:29:33.610Z,4.84
2023-06-24T03:31:33.794Z,4.84
2023-06-24T03:33:34.538Z,4.84
2023-06-24T03:35:34.550Z,4.84
2023-06-24T03:37:33.528Z,4.84
2023-06-24T03:39:34.275Z,4.84
2023-06-24T03:41:33.878Z,4.84
2023-06-24T03:43:33.292Z,4.84
2023-06-24T03:45:34.607Z,4.84
2023-06-24T03:47:33.971Z,4.84
2023-06-24T03:49:34.323Z,4.84
2023-06-24T03:51:34.064Z,4.84
2023-06-24T03:53:33.670Z,4.84
2023-06-24T03:55:33.739Z,4.84
2023-06-24T03:57:34.052Z,4.84
2023-06-24T03:59:33.681Z,4.84
2023-06-24T04:01:37.754Z,4.84
2023-06-24T04:03:34.171Z,4.84
2023-06-24T04:05:34.095Z,4.84
2023-06-24T04:07:34.535Z,4.84
2023-06-24T04:09:33.807Z,4.84
2023-06-24T04:11:33.659Z,4.84
2023-06-24T04:13:35.832Z,4.84
2023-06-24T04:15:34.530Z,4.84
2023-06-24T04:17:33.877Z,4.84
2023-06-24T04:19:34.348Z,4.84
2023-06-24T04:21:35.963Z,4.84
2023-06-24T04:23:33.670Z,4.84
2023-06-24T04:25:34.782Z,4.84
2023-06-24T04:27:33.868Z,4.84
2023-06-24T04:29:33.338Z,4.84
2023-06-24T04:31:34.546Z,4.84
2023-06-24T04:33:33.916Z,4.84
2023-06-24T04:35:33.811Z,4.84
2023-06-24T04:37:34.358Z,4.84
2023-06-24T04:39:33.993Z,4.84
2023-06-24T04:41:33.514Z,4.84
2023-06-24T04:43:34.376Z,4.84
2023-06-24T04:45:34.293Z,4.84
2023-06-24T04:47:34.611Z,4.84
2023-06-24T04:49:34.078Z,4.84
2023-06-24T04:51:33.963Z,4.84
2023-06-24T04:53:34.319Z,4.84
2023-06-24T04:55:34.247Z,4.84
2023-06-24T04:57:36.213Z,4.84
2023-06-24T04:59:34.520Z,4.84
2023-06-24T05:01:38.338Z,4.84
2023-06-24T05:03:34.042Z,4.84
2023-06-24T05:05:36.223Z,4.84
2023-06-24T05:07:34.909Z,4.84
2023-06-24T05:09:33.548Z,4.84
2023-06-24T05:11:34.398Z,4.84
2023-06-24T05:13:35.934Z,4.84
2023-06-24T05:15:34.816Z,4.84
2023-06-24T05:17:33.967Z,4.84
2023-06-24T05:19:33.788Z,4.84
2023-06-24T05:21:34.367Z,4.84
2023-06-24T05:23:34.104Z,4.84
2023-06-24T05:25:33.944Z,4.84
2023-06-24T05:27:33.984Z,4.84
2023-06-24T05:29:34.375Z,4.84
2023-06-24T05:31:34.265Z,4.84
2023-06-24T05:33:34.282Z,4.84
2023-06-24T05:35:34.036Z,4.84
2023-06-24T05:37:34.104Z,4.84
2023-06-24T05:39:33.911Z,4.84
2023-06-24T05:41:33.721Z,4.84
2023-06-24T05:43:33.930Z,4.84
2023-06-24T05:45:33.848Z,4.84
2023-06-24T05:47:34.856Z,4.84
2023-06-24T05:49:34.089Z,4.84
2023-06-24T05:51:35.750Z,4.84
2023-06-24T05:53:34.097Z,4.84
2023-06-24T05:55:34.253Z,4.84
2023-06-24T05:57:37.708Z,4.84
2023-06-24T05:59:34.014Z,4.84
2023-06-24T06:01:37.756Z,4.84
2023-06-24T06:03:35.477Z,4.84
2023-06-24T06:05:34.539Z,4.84
2023-06-24T06:07:33.754Z,4.84
2023-06-24T06:09:34.164Z,4.84
2023-06-24T06:11:33.950Z,4.84
2023-06-24T06:13:33.505Z,4.84
2023-06-24T06:15:34.501Z,4.84
2023-06-24T06:17:33.980Z,4.84
2023-06-24T06:19:34.232Z,4.84
2023-06-24T06:21:33.980Z,4.84
2023-06-24T06:23:34.177Z,4.84
2023-06-24T06:25:34.266Z,4.84
2023-06-24T06:27:33.417Z,4.84
2023-06-24T06:29:33.908Z,4.84
2023-06-24T06:31:33.806Z,4.84
2023-06-24T06:33:34.643Z,4.84
2023-06-24T06:35:33.701Z,4.84
2023-06-24T06:37:33.967Z,4.84
2023-06-24T06:39:33.541Z,4.84
2023-06-24T06:41:34.208Z,4.84
2023-06-24T06:43:33.857Z,4.84
2023-06-24T06:45:34.046Z,4.84
2023-06-24T06:47:34.406Z,4.84
2023-06-24T06:49:33.894Z,4.84
2023-06-24T06:51:34.551Z,4.84
2023-06-24T06:53:37.652Z,4.84
2023-06-24T06:55:33.574Z,4.84
2023-06-24T06:57:34.169Z,4.84
2023-06-24T06:59:33.698Z,4.84
2023-06-24T07:01:41.062Z,4.84
2023-06-24T07:03:34.151Z,4.84
2023-06-24T07:05:36.771Z,4.84
2023-06-24T07:07:33.904Z,4.84
2023-06-24T07:09:33.936Z,4.84
2023-06-24T07:11:33.823Z,4.84
2023-06-24T07:13:33.850Z,4.84
2023-06-24T07:15:36.870Z,4.84
2023-06-24T07:17:33.696Z,4.84
2023-06-24T07:19:33.333Z,4.84
2023-06-24T07:21:34.307Z,4.84
2023-06-24T07:23:34.060Z,4.84
2023-06-24T07:25:33.676Z,4.84
2023-06-24T07:27:36.335Z,4.84
2023-06-24T07:29:53.761Z,4.84
2023-06-24T07:31:34.287Z,4.84
2023-06-24T07:33:34.329Z,4.84
2023-06-24T07:35:34.523Z,4.84
2023-06-24T07:37:48.116Z,4.84
2023-06-24T07:39:33.488Z,4.84
2023-06-24T07:41:34.467Z,4.84
2023-06-24T07:43:33.504Z,4.84
2023-06-24T07:45:34.544Z,4.84
2023-06-24T07:47:34.173Z,4.84
2023-06-24T07:49:34.534Z,4.84
2023-06-24T07:51:34.289Z,4.84
2023-06-24T07:53:33.555Z,4.84
2023-06-24T07:55:34.490Z,4.84
2023-06-24T07:57:33.827Z,4.84
2023-06-24T07:59:34.142Z,4.84
2023-06-24T08:01:37.534Z,4.84
2023-06-24T08:03:34.892Z,4.84
2023-06-24T08:05:35.619Z,4.84
2023-06-24T08:07:33.757Z,4.84
2023-06-24T08:09:34.286Z,4.84
2023-06-24T08:11:33.966Z,4.84
2023-06-24T08:13:33.181Z,4.84
2023-06-24T08:15:34.258Z,4.84
2023-06-24T08:17:33.686Z,4.84
2023-06-24T08:19:34.297Z,4.84
2023-06-24T08:21:34.116Z,4.84
2023-06-24T08:23:33.147Z,4.84
2023-06-24T08:25:34.706Z,4.84
2023-06-24T08:27:48.743Z,4.84
2023-06-24T08:29:33.827Z,4.84
2023-06-24T08:31:34.719Z,4.84
2023-06-24T08:33:33.880Z,4.84
2023-06-24T08:35:36.769Z,4.84
2023-06-24T08:37:33.556Z,4.84
2023-06-24T08:39:34.171Z,4.84
2023-06-24T08:41:34.008Z,4.84
2023-06-24T08:43:34.098Z,4.84
2023-06-24T08:45:34.324Z,4.84
2023-06-24T08:47:33.700Z,4.84
2023-06-24T08:49:40.006Z,4.84
2023-06-24T08:51:33.490Z,4.84
2023-06-24T08:53:34.086Z,4.84
2023-06-24T08:55:35.756Z,4.84
2023-06-24T08:57:33.891Z,4.84
2023-06-24T08:59:34.113Z,4.84
2023-06-24T09:01:36.901Z,4.84
2023-06-24T09:03:34.693Z,4.84
2023-06-24T09:05:35.018Z,4.84
2023-06-24T09:07:34.218Z,4.84
2023-06-24T09:09:33.213Z,4.84
2023-06-24T09:11:34.210Z,4.84
2023-06-24T09:13:36.796Z,4.84
2023-06-24T09:15:34.248Z,4.84
2023-06-24T09:17:33.741Z,4.84
2023-06-24T09:19:34.038Z,4.84
2023-06-24T09:21:33.614Z,4.84
2023-06-24T09:23:34.147Z,4.84
2023-06-24T09:25:33.864Z,4.84
2023-06-24T09:27:34.055Z,4.84
2023-06-24T09:29:33.315Z,4.84
2023-06-24T09:31:49.078Z,4.84
2023-06-24T09:33:33.841Z,4.84
2023-06-24T09:35:38.705Z,4.84
2023-06-24T09:37:36.950Z,4.84
2023-06-24T09:39:44.361Z,4.84
2023-06-24T09:41:48.428Z,4.84
2023-06-24T09:43:34.143Z,4.84
2023-06-24T09:45:34.742Z,4.84
2023-06-24T09:47:33.774Z,4.84
2023-06-24T09:49:34.048Z,4.84
2023-06-24T09:51:36.131Z,4.84
2023-06-24T09:53:34.412Z,4.84
2023-06-24T09:55:34.267Z,4.84
2023-06-24T09:57:36.185Z,4.84
2023-06-24T09:59:34.167Z,4.84
2023-06-24T10:01:38.472Z,4.84
2023-06-24T10:03:36.446Z,4.84
2023-06-24T10:05:34.671Z,4.84
2023-06-24T10:07:34.145Z,4.84
2023-06-24T10:09:37.758Z,4.84
2023-06-24T10:11:34.486Z,4.84
2023-06-24T10:13:34.009Z,4.84
2023-06-24T10:15:33.307Z,4.84
2023-06-24T10:17:34.128Z,4.84
2023-06-24T10:19:48.282Z,4.84
2023-06-24T10:21:33.954Z,4.84
2023-06-24T10:23:33.635Z,4.84
2023-06-24T10:25:33.885Z,4.84
2023-06-24T10:27:34.261Z,4.84
2023-06-24T10:29:34.371Z,4.84
2023-06-24T10:31:34.908Z,4.84
2023-06-24T10:33:34.360Z,4.84
2023-06-24T10:35:33.909Z,4.84
2023-06-24T10:37:33.431Z,4.84
2023-06-24T10:39:34.022Z,4.84
2023-06-24T10:41:34.158Z,4.84
2023-06-24T10:43:34.145Z,4.84
2023-06-24T10:45:33.912Z,4.84
2023-06-24T10:47:34.090Z,4.84
2023-06-24T10:49:34.473Z,4.84
2023-06-24T10:51:34.761Z,4.84
2023-06-24T10:53:33.648Z,4.84
2023-06-24T10:55:33.981Z,4.84
2023-06-24T10:57:33.809Z,4.84
2023-06-24T10:59:33.650Z,4.84
2023-06-24T11:01:35.086Z,4.84
2023-06-24T11:03:35.113Z,4.84
2023-06-24T11:05:33.619Z,4.84
2023-06-24T11:07:34.002Z,4.84
2023-06-24T11:09:33.962Z,4.84
2023-06-24T11:11:35.191Z,4.84
2023-06-24T11:13:34.369Z,4.84
2023-06-24T11:15:36.098Z,4.84
2023-06-24T11:17:33.662Z,4.84
2023-06-24T11:19:34.075Z,4.84
2023-06-24T11:21:34.156Z,4.84
2023-06-24T11:23:33.440Z,4.84
2023-06-24T11:25:33.853Z,4.84
2023-06-24T11:27:33.721Z,53310.9
2023-06-24T11:29:34.194Z,53310.9
2023-06-24T11:31:34.860Z,53310.9
2023-06-24T11:33:33.936Z,4506.16
2023-06-24T11:35:34.216Z,4506.16
2023-06-24T11:37:33.722Z,4506.16
2023-06-24T11:39:37.421Z,1.25
2023-06-24T11:41:34.424Z,1.25
2023-06-24T11:43:33.729Z,1.25
2023-06-24T11:45:38.084Z,0.59
2023-06-24T11:47:33.871Z,0.59
2023-06-24T11:49:33.444Z,0.59
2023-06-24T11:51:37.551Z,0.32
2023-06-24T11:53:33.699Z,0.32
2023-06-24T11:55:33.392Z,0.32
2023-06-24T11:57:37.669Z,0.32
2023-06-24T11:59:33.320Z,0.32
2023-06-24T12:01:38.509Z,0.32
2023-06-24T12:03:35.849Z,0.32
2023-06-24T12:05:35.624Z,0.32
2023-06-24T12:07:34.098Z,0.32
2023-06-24T12:09:52.541Z,0.32
2023-06-24T12:11:34.410Z,0.32
2023-06-24T12:13:34.185Z,0.32
2023-06-24T12:15:33.914Z,0.32
2023-06-24T12:17:34.422Z,0.32
2023-06-24T12:19:33.597Z,0.32
2023-06-24T12:21:39.292Z,0.32
2023-06-24T12:23:33.752Z,0.32
2023-06-24T12:25:34.223Z,0.32
2023-06-24T12:27:33.728Z,0.32
2023-06-24T12:29:33.581Z,0.32
2023-06-24T12:31:34.486Z,0.32
2023-06-24T12:33:33.998Z,0.32
2023-06-24T12:35:33.910Z,0.32
2023-06-24T12:37:33.585Z,0.32
2023-06-24T12:39:36.401Z,0.32
2023-06-24T12:41:34.210Z,0.32
2023-06-24T12:43:34.422Z,0.32
2023-06-24T12:45:33.771Z,0.32
2023-06-24T12:47:33.386Z,0.32
2023-06-24T12:49:34.162Z,0.32
2023-06-24T12:51:34.002Z,0.32
2023-06-24T12:53:33.964Z,0.32
2023-06-24T12:55:33.649Z,0.32
2023-06-24T12:57:47.608Z,0.32
2023-06-24T12:59:33.974Z,0.32
2023-06-24T13:01:39.713Z,0.32
2023-06-24T13:03:34.983Z,0.32
2023-06-24T13:05:34.280Z,0.32
2023-06-24T13:07:34.223Z,0.32
2023-06-24T13:09:34.324Z,0.32
2023-06-24T13:11:35.080Z,0.32
2023-06-24T13:13:37.249Z,0.32
2023-06-24T13:15:34.274Z,0.32
2023-06-24T13:17:34.130Z,0.32
2023-06-24T13:19:33.519Z,0.32
2023-06-24T13:21:50.378Z,0.32
2023-06-24T13:23:33.916Z,0.32
2023-06-24T13:25:34.296Z,0.32
2023-06-24T13:27:33.992Z,0.32
2023-06-24T13:29:33.371Z,0.32
2023-06-24T13:31:35.510Z,0.32
2023-06-24T13:33:34.002Z,0.32
2023-06-24T13:35:34.198Z,0.32
2023-06-24T13:37:34.253Z,0.32
2023-06-24T13:39:33.895Z,0.32
2023-06-24T13:41:33.884Z,0.32
2023-06-24T13:43:34.045Z,0.32
2023-06-24T13:45:34.026Z,0.32
2023-06-24T13:47:34.215Z,0.32
2023-06-24T13:49:34.188Z,0.32
2023-06-24T13:51:34.330Z,0.32
2023-06-24T13:53:33.603Z,0.32
2023-06-24T13:55:34.050Z,0.32
2023-06-24T13:57:33.752Z,0.32
2023-06-24T13:59:34.172Z,16.46
2023-06-24T14:01:37.775Z,16.46
2023-06-24T14:03:34.027Z,16.46
2023-06-24T14:05:34.134Z,0.56
2023-06-24T14:07:33.713Z,0.56
2023-06-24T14:09:34.118Z,0.56
2023-06-24T14:11:34.648Z,0.15
2023-06-24T14:13:33.489Z,0.15
2023-06-24T14:15:34.134Z,0.15
2023-06-24T14:17:34.076Z,0.07
2023-06-24T14:19:37.970Z,0.07
2023-06-24T14:21:33.765Z,0.07
2023-06-24T14:23:34.192Z,0.04
2023-06-24T14:25:48.390Z,0.04
2023-06-24T14:27:34.047Z,0.04
2023-06-24T14:29:33.623Z,34.63
2023-06-24T14:31:35.498Z,34.63
2023-06-24T14:33:37.785Z,34.63
2023-06-24T14:35:34.132Z,0.03
2023-06-24T14:37:33.571Z,0.03
2023-06-24T14:39:40.165Z,0.03
2023-06-24T14:41:34.060Z,0.02
2023-06-24T14:43:34.041Z,0.02
2023-06-24T14:45:33.583Z,0.02
2023-06-24T14:47:34.319Z,23.65
2023-06-24T14:49:33.854Z,23.65
2023-06-24T14:51:34.171Z,23.65
2023-06-24T14:53:34.182Z,24.88
2023-06-24T14:55:33.568Z,24.88
2023-06-24T14:57:34.331Z,24.88
2023-06-24T14:59:33.723Z,24.88
2023-06-24T15:01:37.550Z,24.88
2023-06-24T15:03:35.261Z,24.88
2023-06-24T15:05:34.002Z,24.88
2023-06-24T15:07:34.720Z,0.02
2023-06-24T15:09:34.183Z,0.02
2023-06-24T15:11:37.879Z,0.02
2023-06-24T15:13:34.143Z,0.02
2023-06-24T15:15:34.251Z,0.02
2023-06-24T15:17:36.968Z,0.01
2023-06-24T15:19:34.153Z,0.01
2023-06-24T15:21:48.882Z,0.01
2023-06-24T15:23:34.665Z,12.64
2023-06-24T15:25:33.671Z,0.01
2023-06-24T15:27:34.328Z,0.01
2023-06-24T15:29:35.411Z,14.32
2023-06-24T15:31:35.069Z,13.46
2023-06-24T15:33:34.299Z,13.46
2023-06-24T15:35:33.284Z,0.01
2023-06-24T15:37:33.768Z,0.01
2023-06-24T15:39:33.727Z,0.01
2023-06-24T15:41:35.780Z,0.02
2023-06-24T15:43:33.727Z,0.02
2023-06-24T15:45:33.552Z,0.02
2023-06-24T15:47:35.961Z,15.21
2023-06-24T15:49:33.714Z,15.21
2023-06-24T15:51:35.018Z,15.21
2023-06-24T15:53:34.353Z,0.01
2023-06-24T15:55:33.426Z,0.01
2023-06-24T15:57:34.125Z,0.01
2023-06-24T15:59:34.250Z,0.01
2023-06-24T16:01:39.935Z,0.01
2023-06-24T16:03:35.063Z,0.01
2023-06-24T16:05:35.597Z,0.01
2023-06-24T16:07:34.153Z,0.01
2023-06-24T16:09:34.270Z,0.01
2023-06-24T16:11:34.207Z,0.01
2023-06-24T16:13:34.108Z,9.66
2023-06-24T16:15:33.896Z,9.66
2023-06-24T16:17:35.535Z,9.66
2023-06-24T16:19:34.116Z,0.01
2023-06-24T16:21:34.181Z,0.01
2023-06-24T16:23:36.944Z,0.01
2023-06-24T16:25:33.682Z,7.75
2023-06-24T16:27:48.974Z,7.75
2023-06-24T16:29:33.655Z,0.01
2023-06-24T16:31:35.429Z,0.01
2023-06-24T16:33:34.117Z,0.01
2023-06-24T16:35:43.925Z,0.01
2023-06-24T16:37:33.906Z,0.01
2023-06-24T16:39:33.417Z,0.01
2023-06-24T16:41:34.856Z,7.75
2023-06-24T16:43:33.438Z,0.01
2023-06-24T16:45:34.143Z,0.01
2023-06-24T16:47:34.068Z,9.66
2023-06-24T16:49:34.447Z,0.01
2023-06-24T16:51:34.354Z,0.01
2023-06-24T16:53:33.645Z,12.64
2023-06-24T16:55:37.793Z,12.64
2023-06-24T16:57:33.415Z,12.64
2023-06-24T16:59:34.017Z,10.36
2023-06-24T17:01:42.769Z,10.36
2023-06-24T17:03:35.291Z,10.36
2023-06-24T17:05:33.900Z,0.01
2023-06-24T17:07:36.509Z,0.01
2023-06-24T17:09:33.964Z,0.01
2023-06-24T17:11:34.714Z,11.08
2023-06-24T17:13:34.318Z,0.01
2023-06-24T17:15:34.160Z,0.01
2023-06-24T17:17:33.629Z,0.01
2023-06-24T17:19:37.647Z,0.01
2023-06-24T17:21:34.344Z,0.01
2023-06-24T17:23:34.331Z,0.01
2023-06-24T17:25:33.635Z,0.01
2023-06-24T17:27:34.220Z,0.01
2023-06-24T17:29:33.741Z,0.01
2023-06-24T17:31:34.455Z,0.01
2023-06-24T17:33:34.291Z,0.01
2023-06-24T17:35:33.581Z,0.01
2023-06-24T17:37:34.090Z,0.01
2023-06-24T17:39:34.707Z,0.01
2023-06-24T17:41:33.943Z,0.01
2023-06-24T17:43:34.108Z,0.01
2023-06-24T17:45:35.695Z,0.01
2023-06-24T17:47:34.466Z,0.01
2023-06-24T17:49:33.877Z,0.01
2023-06-24T17:51:35.492Z,0.01
2023-06-24T17:53:33.884Z,0.01
2023-06-24T17:55:33.424Z,0.01
2023-06-24T17:57:34.225Z,0.01
2023-06-24T17:59:33.582Z,0.01
2023-06-24T18:01:37.075Z,0.01
2023-06-24T18:03:33.950Z,0.01
2023-06-24T18:05:34.813Z,0.01
2023-06-24T18:07:34.407Z,0.01
2023-06-24T18:09:33.586Z,0.01
2023-06-24T18:11:34.679Z,0.01
2023-06-24T18:13:33.502Z,0.01
2023-06-24T18:15:34.019Z,0.01
2023-06-24T18:17:33.652Z,0.01
2023-06-24T18:19:34.293Z,0.01
2023-06-24T18:21:34.332Z,0.01
2023-06-24T18:23:33.432Z,0.01
2023-06-24T18:25:34.055Z,0.01
2023-06-24T18:27:36.616Z,0.01
2023-06-24T18:29:34.078Z,0.01
2023-06-24T18:31:34.385Z,0.01
2023-06-24T18:33:34.358Z,0.01
2023-06-24T18:35:34.120Z,0.01
2023-06-24T18:37:34.406Z,0.01
2023-06-24T18:39:33.884Z,0.01
2023-06-24T18:41:33.760Z,0.01
2023-06-24T18:43:34.085Z,0.01
2023-06-24T18:45:33.560Z,0.01
2023-06-24T18:47:34.171Z,0.01
2023-06-24T18:49:33.674Z,0.01
2023-06-24T18:51:34.852Z,0.01
2023-06-24T18:53:33.639Z,0.01
2023-06-24T18:55:34.289Z,0.01
2023-06-24T18:57:33.924Z,0.01
2023-06-24T18:59:35.164Z,0.01
2023-06-24T19:01:37.350Z,0.01
2023-06-24T19:03:34.957Z,0.01
2023-06-24T19:05:38.005Z,0.01
2023-06-24T19:07:33.746Z,0.01
2023-06-24T19:09:33.879Z,0.01
2023-06-24T19:11:36.729Z,0.01
2023-06-24T19:13:33.379Z,0.01
2023-06-24T19:15:33.977Z,0.01
2023-06-24T19:17:33.665Z,0.01
2023-06-24T19:19:33.996Z,0.01
2023-06-24T19:21:34.039Z,0.01
2023-06-24T19:23:35.071Z,0.01
2023-06-24T19:25:36.414Z,0.01
2023-06-24T19:27:34.285Z,0.01
2023-06-24T19:29:33.735Z,0.01
2023-06-24T19:31:35.603Z,0.01
2023-06-24T19:33:34.909Z,0.01
2023-06-24T19:35:37.071Z,0.01
2023-06-24T19:37:33.942Z,0.01
2023-06-24T19:39:33.393Z,0.01
2023-06-24T19:41:34.677Z,0.01
2023-06-24T19:43:33.680Z,0.01
2023-06-24T19:45:34.067Z,0.01
2023-06-24T19:47:51.210Z,0.01
2023-06-24T19:49:34.693Z,0.01
2023-06-24T19:51:34.453Z,0.01
2023-06-24T19:53:33.494Z,0.01
2023-06-24T19:55:33.826Z,0.01
2023-06-24T19:57:34.670Z,0.01
2023-06-24T19:59:34.063Z,0.01
2023-06-24T20:01:38.039Z,0.01
2023-06-24T20:03:33.667Z,0.01
2023-06-24T20:05:34.405Z,0.01
2023-06-24T20:07:33.887Z,0.01
2023-06-24T20:09:34.167Z,0.01
2023-06-24T20:11:34.625Z,0.01
2023-06-24T20:13:33.738Z,0.01
2023-06-24T20:15:33.955Z,0.01
2023-06-24T20:17:33.791Z,0.01
2023-06-24T20:19:36.101Z,0.01
2023-06-24T20:21:34.573Z,0.01
2023-06-24T20:23:33.581Z,0.01
2023-06-24T20:25:33.908Z,0.01
2023-06-24T20:27:36.268Z,0.01
2023-06-24T20:29:34.060Z,0.01
2023-06-24T20:31:34.650Z,0.01
2023-06-24T20:33:33.966Z,0.01
2023-06-24T20:35:33.971Z,0.01
2023-06-24T20:37:34.010Z,0.01
2023-06-24T20:39:34.288Z,0.01
2023-06-24T20:41:34.362Z,0.01
2023-06-24T20:43:33.594Z,0.01
2023-06-24T20:45:37.483Z,0.01
2023-06-24T20:47:33.902Z,0.01
2023-06-24T20:49:33.886Z,0.01
2023-06-24T20:51:34.873Z,0.01
2023-06-24T20:53:34.028Z,0.01
2023-06-24T20:55:33.988Z,0.01
2023-06-24T20:57:33.357Z,0.01
2023-06-24T20:59:33.888Z,0.01
2023-06-24T21:01:38.005Z,0.01
2023-06-24T21:03:35.263Z,0.01
2023-06-24T21:05:33.958Z,0.01
2023-06-24T21:07:33.917Z,0.01
2023-06-24T21:09:34.237Z,0.01
2023-06-24T21:11:34.159Z,0.01
2023-06-24T21:13:54.388Z,0.01
2023-06-24T21:15:33.888Z,0.01
2023-06-24T21:17:33.995Z,0.01
2023-06-24T21:19:34.473Z,0.01
2023-06-24T21:21:34.816Z,0.01
2023-06-24T21:23:33.420Z,0.01
2023-06-24T21:25:34.086Z,0.01
2023-06-24T21:27:33.820Z,0.01
2023-06-24T21:29:33.387Z,0.01
2023-06-24T21:31:38.044Z,0.01
2023-06-24T21:33:34.301Z,0.01
2023-06-24T21:35:33.932Z,0.01
2023-06-24T21:37:33.932Z,0.01
2023-06-24T21:39:33.786Z,0.01
2023-06-24T21:41:34.197Z,0.01
2023-06-24T21:43:34.187Z,0.01
2023-06-24T21:45:33.837Z,0.01
2023-06-24T21:47:33.793Z,0.01
2023-06-24T21:49:34.736Z,0.01
2023-06-24T21:51:34.800Z,0.01
2023-06-24T21:53:34.616Z,0.01
2023-06-24T21:55:33.746Z,0.01
2023-06-24T21:57:34.202Z,0.01
2023-06-24T21:59:34.529Z,0.01
2023-06-24T22:01:46.967Z,0.01
2023-06-24T22:03:34.197Z,0.01
2023-06-24T22:05:48.755Z,0.01
2023-06-24T22:07:33.863Z,0.01
2023-06-24T22:09:33.362Z,0.01
2023-06-24T22:11:36.655Z,0.01
2023-06-24T22:13:33.491Z,0.01
2023-06-24T22:15:34.467Z,0.01
2023-06-24T22:17:33.792Z,0.01
2023-06-24T22:19:33.555Z,0.01
2023-06-24T22:21:34.511Z,0.01
2023-06-24T22:23:33.891Z,0.01
2023-06-24T22:25:33.475Z,0.01
2023-06-24T22:27:33.899Z,0.01
2023-06-24T22:29:33.706Z,0.01
2023-06-24T22:31:35.173Z,0.01
2023-06-24T22:33:34.149Z,0.01
2023-06-24T22:35:33.422Z,0.01
2023-06-24T22:37:36.355Z,0.01
2023-06-24T22:39:33.727Z,0.01
2023-06-24T22:41:35.080Z,0.01
2023-06-24T22:43:34.141Z,0.01
2023-06-24T22:45:36.933Z,0.01
2023-06-24T22:47:33.419Z,0.01
2023-06-24T22:49:34.057Z,0.01
2023-06-24T22:51:34.258Z,0.01
2023-06-24T22:53:33.462Z,0.01
2023-06-24T22:55:34.406Z,0.01
2023-06-24T22:57:33.600Z,0.01
2023-06-24T22:59:33.332Z,0.01
2023-06-24T23:01:34.671Z,0.01
2023-06-24T23:03:34.939Z,0.01
2023-06-24T23:05:34.385Z,0.01
2023-06-24T23:07:34.453Z,0.01
2023-06-24T23:09:33.660Z,0.01
2023-06-24T23:11:34.670Z,0.01
2023-06-24T23:13:34.009Z,0.01
2023-06-24T23:15:33.575Z,0.01
2023-06-24T23:17:34.072Z,0.01
2023-06-24T23:19:34.001Z,0.01
2023-06-24T23:21:34.046Z,0.01
2023-06-24T23:23:33.101Z,0.01
2023-06-24T23:25:33.944Z,0.01
2023-06-24T23:27:33.701Z,0.01
2023-06-24T23:29:34.265Z,0.01
2023-06-24T23:31:35.021Z,0.01
2023-06-24T23:33:33.708Z,0.01
2023-06-24T23:35:34.032Z,0.01
2023-06-24T23:37:33.866Z,0.01
2023-06-24T23:39:33.739Z,0.01
2023-06-24T23:41:34.594Z,0.01
2023-06-24T23:43:33.996Z,0.01
2023-06-24T23:45:33.434Z,0.01
2023-06-24T23:47:34.719Z,0.01
2023-06-24T23:49:34.031Z,0.01
2023-06-24T23:51:33.815Z,0.01
2023-06-24T23:53:35.648Z,0.01
2023-06-24T23:55:33.730Z,0.01
2023-06-24T23:57:33.664Z,0.01
2023-06-24T23:59:34.073Z,0.01
